Time;durP1;ratioP1;P1;durP2;ratioP2;P2;SDS_P1;SDS_P2;PMS_P1;PMS_P2;Temp;Humidity;BMP_temperature;BMP_pressure;BME280_temperature;BME280_humidity;BME280_pressure;Samples;Min_cycle;Max_cycle;Signal;HPM_P1;HPM_P2
2022/09/01 00:02:07;;;;;;;7.10;5.25;;;;;;;15.43;79.43;93303.44;5010067;28;20022;-49
2022/09/01 00:04:37;;;;;;;6.30;5.18;;;;;;;15.50;78.77;93305.34;5010326;28;20025;-51
2022/09/01 00:07:04;;;;;;;6.82;4.80;;;;;;;15.57;77.81;93295.41;5010637;28;20109;-51
2022/09/01 00:09:30;;;;;;;6.47;4.85;;;;;;;15.50;78.09;93299.78;5010065;28;20560;-55
2022/09/01 00:11:55;;;;;;;6.68;4.68;;;;;;;15.44;77.94;93299.31;5009960;28;20113;-52
2022/09/01 00:14:25;;;;;;;6.15;4.80;;;;;;;15.45;78.54;93303.59;5010347;28;20045;-54
2022/09/01 00:16:50;;;;;;;6.45;4.97;;;;;;;15.51;78.11;93297.72;5009971;28;20028;-53
2022/09/01 00:19:16;;;;;;;7.68;5.82;;;;;;;15.43;79.30;93289.53;5010185;28;20022;-51
2022/09/01 00:21:43;;;;;;;11.07;6.65;;;;;;;15.40;79.85;93285.09;5010183;28;20030;-50
2022/09/01 00:24:09;;;;;;;8.25;6.00;;;;;;;15.36;80.75;93276.47;5010213;28;20034;-52
2022/09/01 00:26:35;;;;;;;11.20;7.65;;;;;;;15.40;80.84;93279.53;5009826;28;20036;-49
2022/09/01 00:29:01;;;;;;;7.93;6.72;;;;;;;15.41;81.29;93281.00;5011527;28;20133;-53
2022/09/01 00:31:27;;;;;;;8.23;6.80;;;;;;;15.34;81.39;93281.88;5013446;28;20034;-50
2022/09/01 00:33:53;;;;;;;6.32;5.70;;;;;;;15.22;81.88;93274.69;5013255;28;20476;-53
2022/09/01 00:36:19;;;;;;;7.88;6.55;;;;;;;15.26;81.61;93289.63;5013309;28;20045;-49
2022/09/01 00:38:45;;;;;;;11.43;6.30;;;;;;;15.26;81.68;93280.53;5013571;28;20034;-51
2022/09/01 00:41:12;;;;;;;10.32;6.82;;;;;;;15.19;82.00;93273.81;5013445;28;20514;-55
2022/09/01 00:43:44;;;;;;;7.53;6.70;;;;;;;15.21;82.33;93282.28;5012945;28;20557;-53
2022/09/01 00:46:33;;;;;;;7.75;6.20;;;;;;;15.25;82.50;93284.63;5013412;28;20161;-51
2022/09/01 00:49:03;;;;;;;8.07;5.90;;;;;;;15.24;81.99;93278.34;5011472;28;20279;-50
2022/09/01 00:51:30;;;;;;;8.27;6.15;;;;;;;15.31;81.67;93290.66;5013393;28;20084;-57
2022/09/01 00:53:58;;;;;;;7.97;5.97;;;;;;;15.33;81.52;93290.81;5013226;28;20054;-53
2022/09/01 00:56:23;;;;;;;8.88;6.03;;;;;;;15.35;81.11;93288.91;5013000;28;20034;-52
2022/09/01 00:58:50;;;;;;;6.40;5.00;;;;;;;15.44;80.69;93293.75;5012065;28;20034;-57
2022/09/01 01:01:16;;;;;;;6.88;5.40;;;;;;;15.50;80.64;93290.69;5013081;28;20037;-58
2022/09/01 01:03:43;;;;;;;6.55;5.65;;;;;;;15.41;81.18;93286.56;5013106;28;20029;-57
2022/09/01 01:06:09;;;;;;;6.38;5.50;;;;;;;15.22;81.91;93274.69;5011558;28;20456;-58
2022/09/01 01:08:39;;;;;;;9.50;5.85;;;;;;;15.35;81.57;93293.75;5012764;28;20129;-58
2022/09/01 01:11:17;;;;;;;11.15;6.03;;;;;;;15.32;81.77;93301.19;5012652;28;20104;-51
2022/09/01 01:14:10;;;;;;;6.38;5.78;;;;;;;15.27;81.45;93298.72;5012999;28;20030;-51
2022/09/01 01:16:39;;;;;;;6.70;4.78;;;;;;;15.31;81.37;93305.28;5012588;28;20042;-50
2022/09/01 01:19:05;;;;;;;4.55;4.10;;;;;;;15.27;80.91;93296.66;5012686;28;20117;-51
2022/09/01 01:24:22;;;;;;;6.95;5.40;;;;;;;15.16;83.16;93294.41;5011503;28;20485;-57
2022/09/01 01:26:48;;;;;;;6.18;5.10;;;;;;;15.07;84.44;93286.81;5012346;28;20326;-57
2022/09/01 01:29:14;;;;;;;9.77;6.32;;;;;;;15.18;84.90;93298.09;5012340;28;20034;-58
2022/09/01 01:31:40;;;;;;;6.88;5.57;;;;;;;15.21;84.98;93287.84;5012417;28;20026;-57
2022/09/01 01:34:06;;;;;;;7.07;5.72;;;;;;;15.13;84.74;93293.56;5012529;28;20025;-57
2022/09/01 01:36:36;;;;;;;7.25;5.22;;;;;;;15.17;84.96;93287.56;5012202;28;20651;-56
2022/09/01 01:39:08;;;;;;;6.63;4.95;;;;;;;15.13;84.90;93287.25;5012218;28;20025;-55
2022/09/01 01:41:35;;;;;;;5.97;5.20;;;;;;;15.18;84.01;93286.25;5012181;28;20414;-56
2022/09/01 01:44:03;;;;;;;5.35;4.85;;;;;;;15.22;83.43;93297.69;5012009;28;20117;-54
2022/09/01 01:46:32;;;;;;;5.43;4.78;;;;;;;15.31;82.73;93294.16;4992449;28;20030;-51
2022/09/01 01:48:59;;;;;;;5.40;4.57;;;;;;;15.30;82.50;93291.97;4992666;28;20084;-49
2022/09/01 01:51:26;;;;;;;8.10;6.30;;;;;;;15.27;82.65;93295.94;4992280;28;20134;-53
2022/09/01 01:53:52;;;;;;;6.13;5.10;;;;;;;15.28;82.61;93297.38;4992350;28;20396;-50
2022/09/01 01:56:18;;;;;;;5.78;5.20;;;;;;;15.18;82.83;93297.38;4992238;28;20033;-52
2022/09/01 01:58:45;;;;;;;5.85;5.00;;;;;;;15.18;82.80;93298.09;4992445;28;20534;-50
2022/09/01 02:01:11;;;;;;;4.85;4.20;;;;;;;15.19;82.06;93298.84;4992123;28;20022;-51
2022/09/01 02:03:38;;;;;;;5.85;5.10;;;;;;;15.12;82.60;93302.47;4992164;28;20114;-48
2022/09/01 02:06:07;;;;;;;7.32;5.47;;;;;;;15.01;83.02;93295.41;4992082;28;20114;-49
2022/09/01 02:08:33;;;;;;;;;;;;;;;15.07;82.85;93298.66;4992945;28;20496;-49
2022/09/01 02:10:59;;;;;;;5.35;4.85;;;;;;;15.14;81.69;93300.56;4991866;28;19910;-58
2022/09/01 02:13:29;;;;;;;5.35;4.68;;;;;;;15.15;80.92;93290.94;4991942;28;20030;-57
2022/09/01 02:16:00;;;;;;;5.72;4.82;;;;;;;15.15;80.74;93293.72;4991969;28;20117;-50
2022/09/01 02:18:30;;;;;;;6.00;4.97;;;;;;;15.04;81.30;93290.75;4992177;28;20023;-54
2022/09/01 02:20:57;;;;;;;5.40;4.90;;;;;;;14.89;82.80;93288.97;4992181;28;20101;-50
2022/09/01 02:23:24;;;;;;;7.10;5.30;;;;;;;14.88;83.92;93295.81;4991800;28;20058;-51
2022/09/01 02:25:52;;;;;;;6.05;5.45;;;;;;;14.89;83.17;93297.31;4991675;28;20018;-54
2022/09/01 02:28:18;;;;;;;4.93;4.43;;;;;;;14.84;83.43;93301.09;4991646;28;20514;-53
2022/09/01 02:30:48;;;;;;;8.27;5.35;;;;;;;14.78;83.18;93305.44;4991285;28;20026;-50
2022/09/01 02:33:17;;;;;;;6.55;5.40;;;;;;;14.81;83.58;93302.22;4990980;28;20450;-53
2022/09/01 02:35:51;;;;;;;5.65;4.63;;;;;;;14.84;82.15;93300.34;4991053;28;20030;-50
2022/09/01 02:38:17;;;;;;;4.97;4.35;;;;;;;14.79;82.44;93296.53;4991499;28;20027;-50
2022/09/01 02:40:45;;;;;;;5.80;4.50;;;;;;;14.85;80.87;93297.00;4994549;28;20029;-52
2022/09/01 02:43:13;;;;;;;6.33;4.60;;;;;;;14.71;80.68;93289.63;5011065;28;20029;-52
2022/09/01 02:45:43;;;;;;;6.57;4.82;;;;;;;14.79;80.22;93306.94;5011098;28;20494;-51
2022/09/01 02:48:09;;;;;;;8.35;5.13;;;;;;;14.63;81.38;93303.63;5010956;28;20029;-53
2022/09/01 02:50:41;;;;;;;7.63;5.97;;;;;;;14.47;82.84;93302.38;5010890;28;20109;-51
2022/09/01 02:53:14;;;;;;;7.15;5.80;;;;;;;14.61;82.30;93311.81;5010583;28;20474;-52
2022/09/01 02:55:40;;;;;;;5.22;4.50;;;;;;;14.66;81.76;93310.09;5010927;28;20053;-52
2022/09/01 02:58:09;;;;;;;4.93;4.07;;;;;;;14.72;82.08;93305.00;5011069;28;20095;-51
2022/09/01 03:00:38;;;;;;;5.68;4.55;;;;;;;14.66;82.06;93296.19;5010791;28;20093;-53
2022/09/01 03:03:05;;;;;;;5.55;4.82;;;;;;;14.68;81.85;93302.66;5010785;28;20105;-52
2022/09/01 03:05:31;;;;;;;6.63;4.50;;;;;;;14.73;81.30;93298.09;5010731;28;20473;-50
2022/09/01 03:08:03;;;;;;;5.72;4.50;;;;;;;14.70;81.53;93302.81;5008930;28;20030;-56
2022/09/01 03:10:31;;;;;;;7.30;5.53;;;;;;;14.69;81.56;93298.53;4994357;28;20076;-49
2022/09/01 03:13:05;;;;;;;7.88;5.38;;;;;;;14.55;82.70;93302.28;5010520;28;20419;-53
2022/09/01 03:15:32;;;;;;;6.05;4.82;;;;;;;14.57;83.22;93305.22;5010603;28;20030;-50
2022/09/01 03:17:59;;;;;;;7.25;5.78;;;;;;;14.55;84.27;93308.59;5010524;28;20022;-49
2022/09/01 03:20:27;;;;;;;6.20;5.43;;;;;;;14.67;82.54;93294.88;5010506;28;20759;-47
2022/09/01 03:22:56;;;;;;;6.53;5.85;;;;;;;14.78;82.10;93305.44;5010612;28;20037;-48
2022/09/01 03:25:24;;;;;;;6.10;4.88;;;;;;;14.75;82.21;93304.56;5009935;28;20152;-46
2022/09/01 03:27:51;;;;;;;7.38;5.47;;;;;;;14.70;82.38;93302.06;4990835;28;20475;-49
2022/09/01 03:30:18;;;;;;;7.18;5.22;;;;;;;14.73;82.07;93304.41;4990674;28;20100;-51
2022/09/01 03:32:44;;;;;;;6.47;4.85;;;;;;;14.74;81.56;93305.13;4990592;28;20122;-50
2022/09/01 03:35:10;;;;;;;5.43;4.20;;;;;;;14.71;81.55;93306.28;4990718;28;20532;-49
2022/09/01 03:37:38;;;;;;;8.02;5.93;;;;;;;14.59;81.74;93302.59;4998956;28;20084;-50
2022/09/01 03:40:07;;;;;;;5.80;4.45;;;;;;;14.59;82.87;93308.91;5010308;28;20026;-57
2022/09/01 03:42:35;;;;;;;10.45;5.65;;;;;;;14.58;83.29;93309.44;5009973;28;20053;-52
2022/09/01 03:45:08;;;;;;;10.13;6.55;;;;;;;14.70;82.80;93315.94;5009229;28;20026;-57
2022/09/01 03:47:39;;;;;;;12.70;7.10;;;;;;;14.75;81.64;93312.19;5010297;28;20037;-54
2022/09/01 03:50:19;;;;;;;10.43;7.78;;;;;;;14.77;80.91;93313.03;5010065;28;20566;-55
2022/09/01 03:52:49;;;;;;;10.88;7.63;;;;;;;14.78;80.81;93313.78;5010113;28;20442;-55
2022/09/01 03:55:22;;;;;;;11.40;8.80;;;;;;;14.67;80.70;93309.50;5010082;28;20053;-55
2022/09/01 03:57:49;;;;;;;12.27;7.88;;;;;;;14.64;81.14;93312.72;5010295;28;20443;-55
2022/09/01 04:00:19;;;;;;;7.22;5.38;;;;;;;14.60;81.72;93312.38;5007805;28;20034;-57
2022/09/01 04:02:48;;;;;;;4.68;4.18;;;;;;;14.61;81.28;93314.59;5004025;28;20026;-55
2022/09/01 04:05:14;;;;;;;4.28;3.53;;;;;;;14.52;81.63;93304.19;5013997;28;20034;-56
2022/09/01 04:07:44;;;;;;;3.70;3.35;;;;;;;14.58;80.87;93301.13;5020532;28;20034;-55
2022/09/01 04:10:10;;;;;;;4.10;3.70;;;;;;;14.53;80.65;93308.41;5012827;28;20053;-55
2022/09/01 04:12:37;;;;;;;8.05;7.28;;;;;;;14.54;81.64;93298.03;5011927;28;20026;-55
2022/09/01 04:15:04;;;;;;;14.80;13.43;;;;;;;14.50;82.40;93300.50;5013038;28;20454;-56
2022/09/01 04:20:18;;;;;;;6.15;4.78;;;;;;;14.68;80.95;93310.97;5013443;28;20068;-55
2022/09/01 04:22:49;;;;;;;5.55;4.95;;;;;;;14.63;81.97;93311.97;5022045;28;20025;-59
2022/09/01 04:25:26;;;;;;;5.53;5.03;;;;;;;14.63;81.40;93314.00;5016014;28;20025;-54
2022/09/01 04:27:56;;;;;;;4.45;3.85;;;;;;;14.67;81.77;93317.09;4993600;28;20038;-58
2022/09/01 04:30:25;;;;;;;5.22;3.90;;;;;;;14.73;81.39;93312.00;5002483;28;20184;-51
2022/09/01 04:32:54;;;;;;;7.68;7.07;;;;;;;14.65;81.76;93312.13;5011426;28;20529;-55
2022/09/01 04:35:29;;;;;;;;;;;;;;;14.57;80.91;93308.75;4992950;28;20030;-53
2022/09/01 04:37:54;;;;;;;3.95;3.38;;;;;;;14.48;81.05;93305.91;4992861;28;19917;-54
2022/09/01 04:40:22;;;;;;;4.35;3.33;;;;;;;14.49;81.56;93308.09;4993049;28;20035;-51
2022/09/01 04:42:48;;;;;;;5.35;4.03;;;;;;;14.48;82.20;93306.66;4993211;28;20519;-54
2022/09/01 04:45:15;;;;;;;4.13;3.70;;;;;;;14.51;82.72;93304.75;4993646;28;20041;-56
2022/09/01 04:47:41;;;;;;;3.60;3.30;;;;;;;14.42;82.13;93287.44;4993602;28;20411;-56
2022/09/01 04:50:13;;;;;;;4.65;3.97;;;;;;;14.64;82.60;93301.59;4993390;28;20050;-56
2022/09/01 04:52:40;;;;;;;7.03;6.50;;;;;;;14.66;82.86;93296.19;5001521;28;20034;-55
2022/09/01 04:55:16;;;;;;;23.13;20.98;;;;;;;14.81;83.23;93302.22;5010743;28;20058;-56
2022/09/01 04:57:46;;;;;;;4.53;3.72;;;;;;;14.84;82.60;93292.00;4991014;28;20038;-55
2022/09/01 05:00:23;;;;;;;4.57;3.78;;;;;;;14.83;82.63;93299.63;4991146;28;20491;-54
2022/09/01 05:02:54;;;;;;;6.57;4.95;;;;;;;14.88;82.57;93295.81;4990962;28;20034;-51
2022/09/01 05:05:21;;;;;;;6.43;4.95;;;;;;;15.02;82.45;93290.59;4990871;28;20046;-52
2022/09/01 05:07:51;;;;;;;6.10;4.82;;;;;;;15.09;81.46;93296.03;4997388;28;20029;-53
2022/09/01 05:10:18;;;;;;;4.50;3.90;;;;;;;15.18;80.63;93294.59;5010438;28;20034;-51
2022/09/01 05:12:45;;;;;;;7.13;4.80;;;;;;;15.16;81.21;93297.94;5010294;28;20030;-51
2022/09/01 05:15:12;;;;;;;4.40;3.67;;;;;;;15.20;80.53;93294.75;5010422;28;20038;-50
2022/09/01 05:17:39;;;;;;;4.28;3.85;;;;;;;15.18;80.29;93292.53;5010394;28;20151;-54
2022/09/01 05:20:09;;;;;;;4.30;3.90;;;;;;;15.04;80.57;93274.06;5010677;28;20033;-54
2022/09/01 05:22:35;;;;;;;6.68;5.97;;;;;;;15.12;80.99;93292.09;5010526;28;20037;-52
2022/09/01 05:25:10;;;;;;;6.55;5.43;;;;;;;15.10;81.37;93294.72;5010321;28;20045;-51
2022/09/01 05:27:38;;;;;;;5.03;4.53;;;;;;;15.09;81.26;93287.69;5010231;28;20793;-50
2022/09/01 05:30:07;;;;;;;4.55;3.83;;;;;;;15.12;80.90;93289.31;5008625;28;20133;-54
2022/09/01 05:32:36;;;;;;;4.78;4.30;;;;;;;15.13;81.98;93303.94;5009469;28;20104;-53
2022/09/01 05:35:08;;;;;;;6.18;4.25;;;;;;;15.22;82.05;93299.72;5009500;28;20504;-50
2022/09/01 05:37:37;;;;;;;4.43;3.92;;;;;;;15.39;82.72;93294.78;5010149;28;20044;-53
2022/09/01 05:40:08;;;;;;;2.85;2.60;;;;;;;15.58;80.88;93289.25;5008702;28;20061;-55
2022/09/01 05:42:38;;;;;;;3.60;2.90;;;;;;;15.73;79.97;93293.78;5006302;28;20137;-50
2022/09/01 05:45:04;;;;;;;4.95;4.10;;;;;;;15.84;79.74;93296.72;5010236;28;20061;-50
2022/09/01 05:47:35;;;;;;;4.75;3.47;;;;;;;15.96;79.92;93294.03;5010034;28;20451;-49
2022/09/01 05:50:02;;;;;;;6.47;4.97;;;;;;;16.05;79.51;93295.38;5009688;28;20037;-51
2022/09/01 05:52:30;;;;;;;9.40;7.43;;;;;;;16.17;79.22;93296.97;5009318;28;20036;-51
2022/09/01 05:54:58;;;;;;;11.27;9.30;;;;;;;16.24;79.49;93298.13;5008586;28;20088;-55
2022/09/01 05:57:24;;;;;;;16.90;12.35;;;;;;;16.41;79.29;93293.09;4992139;28;20026;-51
2022/09/01 05:59:52;;;;;;;4.85;4.43;;;;;;;16.53;79.01;93293.97;4990127;28;20038;-57
2022/09/01 06:02:20;;;;;;;3.60;3.03;;;;;;;16.62;77.53;93295.25;4990089;28;20026;-58
2022/09/01 06:04:46;;;;;;;5.35;4.07;;;;;;;16.58;78.10;93290.16;4990234;28;20049;-57
2022/09/01 06:07:13;;;;;;;4.43;3.75;;;;;;;16.62;79.50;93282.06;4989074;28;20168;-58
2022/09/01 06:09:40;;;;;;;4.65;4.13;;;;;;;16.65;79.20;93292.00;5003273;28;20797;-53
2022/09/01 06:12:08;;;;;;;4.40;4.00;;;;;;;16.65;80.12;93282.94;5009101;28;20061;-51
2022/09/01 06:14:33;;;;;;;5.07;4.22;;;;;;;16.67;80.53;93280.28;5009147;28;20099;-53
2022/09/01 06:16:59;;;;;;;7.32;5.97;;;;;;;16.77;80.58;93288.59;5008601;28;20038;-50
2022/09/01 06:19:25;;;;;;;9.25;5.60;;;;;;;16.78;80.69;93278.91;5009038;28;20034;-49
2022/09/01 06:21:52;;;;;;;7.63;6.32;;;;;;;16.86;81.16;93287.81;5008686;28;20022;-50
2022/09/01 06:24:17;;;;;;;8.30;6.70;;;;;;;16.97;81.29;93281.63;5008692;28;20418;-53
2022/09/01 06:26:45;;;;;;;10.73;6.40;;;;;;;17.06;80.89;93292.72;5007828;28;20042;-52
2022/09/01 06:29:14;;;;;;;8.13;7.05;;;;;;;17.08;80.66;93278.91;5008326;28;20037;-52
2022/09/01 06:31:39;;;;;;;;;;;;;;;17.12;80.72;93281.97;5006356;28;20454;-55
2022/09/01 06:34:08;;;;;;;5.60;5.00;;;;;;;17.16;81.38;93279.44;4994916;28;19976;-56
2022/09/01 13:21:43;;;;;;;4.35;3.30;;;;;;;29.96;34.05;93107.59;5060220;28;20646;-63
2022/09/01 13:24:09;;;;;;;3.38;3.08;;;;;;;29.62;35.48;93095.59;5060034;28;20037;-65
2022/09/01 13:26:34;;;;;;;4.43;3.45;;;;;;;29.51;35.94;93091.13;5079872;27;20102;-65
2022/09/01 13:29:00;;;;;;;6.88;4.00;;;;;;;29.10;37.27;93091.75;5166700;27;20394;-64
2022/09/01 13:31:27;;;;;;;3.97;3.55;;;;;;;29.00;39.19;93106.47;5165433;27;20022;-66
2022/09/01 13:33:53;;;;;;;4.75;3.50;;;;;;;28.86;37.33;93103.38;5167074;27;20403;-66
2022/09/01 13:36:18;;;;;;;4.18;2.97;;;;;;;28.65;41.17;93095.09;5163464;27;20014;-65
2022/09/01 13:38:44;;;;;;;4.80;3.15;;;;;;;28.63;42.40;93097.91;5061234;28;20029;-66
2022/09/01 13:41:10;;;;;;;4.53;3.40;;;;;;;28.51;44.00;93096.22;5060933;28;20535;-64
2022/09/01 13:43:35;;;;;;;3.28;2.97;;;;;;;28.32;44.45;93088.69;5077323;27;20021;-65
2022/09/01 13:46:01;;;;;;;4.18;3.33;;;;;;;28.11;45.56;93086.75;5067671;27;20327;-67
2022/09/01 13:48:27;;;;;;;4.75;3.58;;;;;;;27.79;46.20;93083.13;5061035;28;20029;-65
2022/09/01 13:50:53;;;;;;;5.13;4.53;;;;;;;27.60;46.61;93078.41;5060763;28;20023;-65
2022/09/01 13:53:19;;;;;;;3.95;3.58;;;;;;;27.51;46.25;93083.16;5054186;27;20021;-67
2022/09/01 13:55:45;;;;;;;6.10;3.58;;;;;;;27.23;47.40;93090.91;5064291;27;20029;-65
2022/09/01 13:58:11;;;;;;;5.05;3.53;;;;;;;27.16;47.50;93094.25;5048920;28;20509;-65
2022/09/01 14:12:42;;;;;;;4.30;3.63;;;;;;;27.94;45.26;93084.91;5146134;27;20873;-66
2022/09/01 14:15:09;;;;;;;3.60;3.30;;;;;;;27.82;43.27;93098.81;5146577;27;20046;-67
2022/09/01 14:17:36;;;;;;;4.03;3.50;;;;;;;27.57;43.45;93093.94;5146615;27;20075;-66
2022/09/01 14:20:03;;;;;;;4.80;3.55;;;;;;;27.38;45.84;93095.59;5144838;27;20027;-65
2022/09/01 14:22:29;;;;;;;3.72;3.05;;;;;;;27.31;47.53;93096.78;5146083;27;20518;-66
2022/09/01 14:24:54;;;;;;;6.13;3.67;;;;;;;27.24;48.81;93102.97;5146420;27;20035;-66
2022/09/01 14:27:20;;;;;;;3.40;3.10;;;;;;;26.93;48.87;93098.59;5146654;27;20533;-67
2022/09/01 14:29:49;;;;;;;4.00;3.60;;;;;;;26.52;50.30;93112.94;5135315;27;20019;-62
2022/09/01 14:32:16;;;;;;;4.25;3.08;;;;;;;26.26;51.46;93110.06;5134498;27;20491;-66
2022/09/01 14:34:42;;;;;;;3.70;3.00;;;;;;;26.22;51.09;93104.28;5147608;27;20034;-65
2022/09/01 14:37:08;;;;;;;4.65;3.60;;;;;;;26.13;51.04;93108.97;5146057;27;20023;-66
2022/09/01 14:39:33;;;;;;;4.68;3.63;;;;;;;26.11;51.07;93108.91;5146371;27;20022;-67
2022/09/01 14:41:59;;;;;;;3.42;2.40;;;;;;;26.06;51.44;93103.75;5146081;27;20098;-66
2022/09/01 14:44:26;;;;;;;3.80;3.25;;;;;;;25.90;52.00;93103.94;5146264;27;20031;-66
2022/09/01 14:46:53;;;;;;;5.95;3.20;;;;;;;25.70;52.04;93108.25;5145513;27;20053;-66
2022/09/01 14:49:19;;;;;;;3.38;3.08;;;;;;;25.53;53.06;93112.66;5141704;27;20031;-65
2022/09/01 14:51:45;;;;;;;4.18;3.25;;;;;;;25.36;53.38;93108.50;5133471;27;20063;-64
2022/09/01 14:54:11;;;;;;;6.35;2.90;;;;;;;25.36;52.95;93122.66;5137669;27;20430;-65
2022/09/01 14:56:40;;;;;;;3.15;2.85;;;;;;;25.21;52.96;93128.50;5136847;27;20091;-64
2022/09/01 14:59:07;;;;;;;4.75;3.50;;;;;;;25.19;53.03;93120.66;5141906;27;20071;-65
2022/09/01 15:01:33;;;;;;;2.63;2.42;;;;;;;25.18;53.26;93113.56;5145586;27;20018;-64
2022/09/01 15:03:58;;;;;;;2.97;2.75;;;;;;;25.19;52.68;93117.81;5144741;27;20556;-64
2022/09/01 15:06:24;;;;;;;4.15;3.70;;;;;;;25.08;52.08;93118.16;5137438;27;20024;-65
2022/09/01 15:08:50;;;;;;;3.53;3.17;;;;;;;24.97;52.44;93111.38;5140673;27;20399;-64
2022/09/01 15:11:18;;;;;;;3.70;3.35;;;;;;;25.01;53.28;93117.19;5140168;27;20114;-65
2022/09/01 15:13:44;;;;;;;3.45;2.22;;;;;;;24.79;53.96;93116.41;5129629;27;20061;-65
2022/09/01 15:16:21;;;;;;;3.83;2.97;;;;;;;24.86;54.80;93115.25;5130916;27;20058;-64
2022/09/01 15:18:47;;;;;;;3.60;3.30;;;;;;;24.77;55.24;93119.16;5136724;27;20110;-64
2022/09/01 15:21:25;;;;;;;4.72;3.58;;;;;;;24.73;55.43;93113.34;5129159;27;20106;-64
2022/09/01 15:23:52;;;;;;;3.43;3.13;;;;;;;24.63;55.15;93108.03;5131490;27;20054;-64
2022/09/01 15:26:19;;;;;;;5.68;3.30;;;;;;;24.53;55.21;93104.13;5131205;27;20428;-64
2022/09/01 15:28:44;;;;;;;6.05;3.42;;;;;;;24.59;55.48;93107.16;5131030;27;20559;-64
2022/09/01 15:31:11;;;;;;;4.47;4.00;;;;;;;24.57;55.90;93104.28;5131117;27;20026;-64
2022/09/01 15:33:37;;;;;;;5.40;4.47;;;;;;;24.71;55.70;93111.16;5130826;27;20030;-65
2022/09/01 15:36:03;;;;;;;4.22;3.45;;;;;;;24.73;55.49;93102.06;5128505;27;20027;-65
2022/09/01 15:38:29;;;;;;;5.90;3.40;;;;;;;24.67;55.82;93105.34;5119860;27;20038;-65
2022/09/01 15:40:54;;;;;;;3.42;3.13;;;;;;;24.68;55.86;93106.81;5112960;27;20030;-64
2022/09/01 15:43:20;;;;;;;5.30;4.60;;;;;;;24.56;56.52;93094.38;5118566;27;20035;-65
2022/09/01 15:45:47;;;;;;;5.53;3.63;;;;;;;24.49;55.97;93084.94;5118647;27;20019;-64
2022/09/01 15:48:12;;;;;;;5.97;3.95;;;;;;;24.61;56.10;93110.78;5128800;27;20023;-62
2022/09/01 15:50:38;;;;;;;4.10;3.05;;;;;;;24.54;56.00;93114.03;5119488;27;20404;-60
2022/09/01 15:53:07;;;;;;;3.55;3.22;;;;;;;24.56;56.00;93125.41;5110866;28;20047;-60
2022/09/01 15:55:44;;;;;;;4.43;3.38;;;;;;;24.54;55.60;93116.84;5092816;28;20514;-59
2022/09/01 15:58:11;;;;;;;4.78;4.03;;;;;;;24.51;55.77;93118.16;5110295;28;20042;-60
2022/09/01 16:00:38;;;;;;;8.25;5.75;;;;;;;24.47;55.55;93124.38;5110412;28;20019;-60
2022/09/01 16:03:03;;;;;;;5.63;4.85;;;;;;;24.41;55.84;93115.69;5110799;28;20052;-59
2022/09/01 16:05:30;;;;;;;6.45;3.83;;;;;;;24.36;56.03;93119.00;5126058;27;20057;-48
2022/09/01 16:07:56;;;;;;;3.95;3.55;;;;;;;24.24;56.65;93127.00;5130448;27;20030;-57
2022/09/01 16:10:22;;;;;;;4.10;3.75;;;;;;;24.32;56.39;93130.84;5130308;27;20051;-50
2022/09/01 16:12:50;;;;;;;4.78;3.58;;;;;;;24.29;56.43;93125.78;5130708;27;20038;-54
2022/09/01 16:15:19;;;;;;;4.72;3.83;;;;;;;24.24;55.97;93127.72;5130294;27;20023;-56
2022/09/01 16:17:53;;;;;;;6.45;4.18;;;;;;;24.25;56.30;93131.28;5130791;27;20482;-47
2022/09/01 16:20:22;;;;;;;3.88;3.47;;;;;;;24.21;56.21;93125.47;5129061;27;20136;-54
2022/09/01 16:22:57;;;;;;;5.15;4.40;;;;;;;24.16;55.71;93123.88;5130043;27;20027;-59
2022/09/01 16:25:28;;;;;;;5.43;4.88;;;;;;;24.06;56.33;93122.09;5129955;27;20035;-57
2022/09/01 16:27:55;;;;;;;6.95;4.75;;;;;;;23.99;56.99;93120.41;5130207;27;20121;-54
2022/09/01 16:30:29;;;;;;;6.63;4.60;;;;;;;23.99;57.12;93128.88;5130031;27;20031;-50
2022/09/01 16:33:02;;;;;;;6.13;5.32;;;;;;;24.06;57.12;93138.31;5129985;27;20023;-55
2022/09/01 16:35:42;;;;;;;5.35;3.95;;;;;;;24.04;57.07;93136.13;5128841;27;20049;-56
2022/09/01 16:38:18;;;;;;;3.58;3.22;;;;;;;23.99;56.81;93140.16;5112452;27;20030;-52
2022/09/01 16:41:08;;;;;;;5.10;3.80;;;;;;;23.99;57.30;93145.06;5146031;27;20031;-54
2022/09/01 16:44:07;;;;;;;4.18;3.40;;;;;;;23.97;57.27;93148.50;5130023;27;20045;-57
2022/09/01 16:46:45;;;;;;;4.53;3.58;;;;;;;23.97;57.02;93150.63;5121412;27;20495;-57
2022/09/01 16:49:25;;;;;;;4.13;3.40;;;;;;;23.99;57.64;93156.34;5129487;27;20031;-54
2022/09/01 16:52:14;;;;;;;4.15;3.70;;;;;;;23.97;57.98;93156.25;5128146;27;20499;-57
2022/09/01 16:54:55;;;;;;;4.85;3.78;;;;;;;23.70;58.22;93148.09;5109639;27;20038;-50
2022/09/01 17:09:45;;;;;;;3.65;3.35;;;;;;;24.51;55.31;93152.03;5041523;28;20638;-48
2022/09/01 17:12:13;;;;;;;;;;;;;;;24.28;55.86;93153.28;5033758;28;20123;-48
2022/09/01 17:14:48;;;;;;;4.68;3.25;;;;;;;24.05;56.68;93150.97;5043538;28;20455;-51
2022/09/01 17:17:19;;;;;;;5.22;3.55;;;;;;;23.99;57.72;93157.06;5033728;28;20025;-49
2022/09/01 17:19:50;;;;;;;3.92;3.53;;;;;;;23.87;57.82;93148.13;5036547;28;20040;-50
2022/09/01 17:22:17;;;;;;;4.63;3.90;;;;;;;23.83;57.63;93147.97;5036196;28;20025;-49
2022/09/01 17:24:47;;;;;;;4.70;3.67;;;;;;;23.86;57.73;93154.41;5042105;28;20037;-50
2022/09/01 17:27:23;;;;;;;7.25;4.15;;;;;;;23.70;57.84;93153.75;5043502;28;20155;-48
2022/09/01 17:29:51;;;;;;;3.88;3.20;;;;;;;23.73;58.41;93160.94;5042720;28;20033;-50
2022/09/01 17:32:28;;;;;;;5.33;3.70;;;;;;;23.63;58.33;93160.53;5040988;28;20025;-50
2022/09/01 17:35:18;;;;;;;5.20;3.72;;;;;;;23.61;58.43;93163.97;5043990;28;20096;-49
2022/09/01 17:38:05;;;;;;;7.75;4.07;;;;;;;23.52;58.96;93161.47;5041398;28;20017;-48
2022/09/01 17:40:38;;;;;;;6.55;3.95;;;;;;;23.37;59.99;93156.59;5041790;28;20033;-47
2022/09/01 17:43:35;;;;;;;4.30;3.53;;;;;;;23.38;59.27;93158.78;5041201;28;20032;-48
2022/09/01 17:46:34;;;;;;;3.97;3.55;;;;;;;23.36;59.47;93158.69;5041670;28;20029;-46
2022/09/01 17:49:18;;;;;;;4.25;3.25;;;;;;;23.33;60.30;93157.88;5040986;28;20045;-48
2022/09/01 17:51:57;;;;;;;6.85;3.55;;;;;;;23.26;60.28;93158.22;5040674;28;20025;-50
2022/09/01 17:54:25;;;;;;;;;;;;;;;23.22;60.49;93152.41;5042742;28;20045;-47
2022/09/01 17:57:28;;;;;;;4.30;3.78;;;;;;;23.12;60.92;93143.53;5043686;28;20301;-50
2022/09/01 18:00:07;;;;;;;4.07;3.53;;;;;;;23.07;61.14;93150.38;5043236;28;20029;-44
2022/09/01 18:02:48;;;;;;;4.32;3.25;;;;;;;23.04;60.77;93143.22;5042215;28;20076;-51
2022/09/01 18:05:21;;;;;;;3.85;3.47;;;;;;;22.99;61.86;93155.66;5041506;28;20048;-51
2022/09/01 18:08:23;;;;;;;5.95;5.40;;;;;;;22.93;61.54;93155.41;5039089;28;20531;-47
2022/09/01 18:10:54;;;;;;;5.45;4.00;;;;;;;22.90;61.95;93151.03;5027242;28;20069;-49
2022/09/01 18:13:49;;;;;;;6.30;4.43;;;;;;;22.81;62.33;93163.28;5026101;28;20422;-51
2022/09/01 18:16:18;;;;;;;5.40;4.13;;;;;;;22.66;62.89;93167.56;5026811;28;20056;-54
2022/09/01 18:18:45;;;;;;;;;;;;;;;22.76;62.39;93165.19;5032094;28;20102;-58
2022/09/01 18:21:19;;;;;;;4.25;3.83;;;;;;;22.74;61.62;93167.94;5032108;28;19909;-52
2022/09/01 18:23:48;;;;;;;5.32;3.60;;;;;;;22.67;62.31;93168.31;5030364;28;20100;-50
2022/09/01 18:26:15;;;;;;;;;;;;;;;22.56;63.01;93181.91;5030787;28;20026;-50
2022/09/01 18:28:43;;;;;;;4.82;3.50;;;;;;;22.48;62.94;93175.88;5029793;28;19916;-54
2022/09/01 18:31:31;;;;;;;5.07;3.88;;;;;;;22.41;63.53;93177.00;5031599;28;20028;-50
2022/09/01 18:34:14;;;;;;;3.78;3.47;;;;;;;22.33;63.06;93176.59;5029468;28;20119;-49
2022/09/01 18:37:02;;;;;;;5.75;4.40;;;;;;;22.37;63.64;93184.50;5030994;28;21377;-50
2022/09/01 18:39:48;;;;;;;4.10;3.67;;;;;;;22.37;64.73;93187.31;5031659;28;20518;-49
2022/09/01 18:42:29;;;;;;;3.28;2.97;;;;;;;22.45;63.22;93187.69;5029728;28;20040;-48
2022/09/01 18:45:45;;;;;;;3.85;3.33;;;;;;;22.37;63.75;93202.09;5030212;28;20025;-48
2022/09/01 18:48:29;;;;;;;5.65;3.67;;;;;;;22.24;64.68;93194.44;4990061;28;20088;-47
2022/09/01 18:51:30;;;;;;;5.38;3.95;;;;;;;22.22;64.20;93199.97;5028751;28;20483;-47
2022/09/01 18:54:12;;;;;;;4.53;4.10;;;;;;;22.20;64.39;93205.50;5015696;28;20037;-52
2022/09/01 18:56:43;;;;;;;4.35;3.95;;;;;;;22.21;64.48;93209.78;5030576;28;20036;-53
2022/09/01 18:59:11;;;;;;;6.15;3.95;;;;;;;22.19;64.63;93208.97;5032408;28;20033;-53
2022/09/01 19:01:47;;;;;;;4.13;3.73;;;;;;;22.03;65.09;93200.47;5030706;28;20025;-58
2022/09/01 19:04:30;;;;;;;5.43;3.90;;;;;;;21.87;65.83;93194.09;5027411;28;20444;-57